Robertsdale, Pennsylvania
Current Conditions -  °F | °C
As of 4:53 AM on Saturday 22 Nov 2014 (Local Time) from KAOO Reporting Station
Clear Clear  
Wind Chill: 18°   Ceiling: Unl
Heat Index: 18°   Visibility: 10mi
Dew Point:   Wind: 0mph
Humidity: 68%   Direction: NA
Pressure: 30.38"   Gusts: NA
Location:  40.18°N, 78.12°W
Report Text: KAOO 220953Z AUTO 00000KT 10SM CLR M08/M13 A3038 RMK AO2 SLP314 T10781128
Loading
Personal Weather Stations






























Interactive Weather Map New forecast layout! Learn more

10-Day Weather Forecast

Advertisements
Track Severe Weather on mobile